createdAt,value
2022-10-20T00:01:51.844Z,99205.34
2022-10-20T00:04:18.537Z,99202.50
2022-10-20T00:06:45.162Z,99208.59
2022-10-20T00:09:11.987Z,99198.84
2022-10-20T00:11:39.326Z,99202.28
2022-10-20T00:14:06.247Z,99193.13
2022-10-20T00:16:36.946Z,99192.91
2022-10-20T00:19:03.991Z,99193.75
2022-10-20T00:21:31.833Z,99190.47
2022-10-20T00:24:01.471Z,99187.03
2022-10-20T00:26:30.110Z,99176.59
2022-10-20T00:28:57.701Z,99188.25
2022-10-20T00:31:25.992Z,99191.69
2022-10-20T00:33:53.485Z,99189.84
2022-10-20T00:36:21.892Z,99186.41
2022-10-20T00:38:49.413Z,99173.56
2022-10-20T00:41:18.208Z,99167.06
2022-10-20T00:43:54.221Z,99161.94
2022-10-20T00:46:23.892Z,99156.47
2022-10-20T00:48:55.301Z,99150.56
2022-10-20T00:51:26.495Z,99150.75
2022-10-20T00:53:58.360Z,99152.78
2022-10-20T00:56:25.172Z,99140.97
2022-10-20T00:58:51.835Z,99144.84
2022-10-20T01:01:19.079Z,99138.97
2022-10-20T01:03:49.141Z,99141.00
2022-10-20T01:06:18.274Z,99141.41
2022-10-20T01:08:45.076Z,99142.22
2022-10-20T01:11:27.640Z,99140.19
2022-10-20T01:14:06.804Z,99129.19
2022-10-20T01:16:48.702Z,99133.25
2022-10-20T01:19:25.496Z,99130.00
2022-10-20T01:22:13.446Z,99133.66
2022-10-20T01:24:50.802Z,99123.06
2022-10-20T01:27:42.155Z,99121.47
2022-10-20T01:30:13.428Z,99117.38
2022-10-20T01:33:07.320Z,99120.44
2022-10-20T01:35:49.175Z,99112.09
2022-10-20T01:38:41.270Z,99106.81
2022-10-20T01:41:14.203Z,99109.03
2022-10-20T01:43:46.280Z,99105.16
2022-10-20T01:46:15.777Z,99115.13
2022-10-20T01:48:43.367Z,99110.03
2022-10-20T01:51:10.690Z,99103.75
2022-10-20T01:53:37.477Z,99102.53
2022-10-20T01:56:05.094Z,99104.53
2022-10-20T01:58:51.361Z,99095.19
2022-10-20T02:01:42.676Z,99092.94
2022-10-20T02:04:10.712Z,99094.38
2022-10-20T02:06:52.526Z,99098.81
2022-10-20T02:09:31.847Z,99093.16
2022-10-20T02:12:03.250Z,99092.31
2022-10-20T02:14:33.184Z,99087.22
2022-10-20T02:17:06.659Z,99087.22
2022-10-20T02:19:39.626Z,99077.28
2022-10-20T02:22:08.862Z,99076.03
2022-10-20T02:24:38.377Z,99080.09
2022-10-20T02:27:14.122Z,99069.69
2022-10-20T02:29:46.845Z,99072.75
2022-10-20T02:32:16.210Z,99073.78
2022-10-20T02:34:43.479Z,99072.97
2022-10-20T02:37:11.044Z,99071.75
2022-10-20T02:39:37.742Z,99074.16
2022-10-20T02:42:04.399Z,99074.97
2022-10-20T02:44:31.014Z,99069.69
2022-10-20T02:46:57.689Z,99066.63
2022-10-20T02:49:25.215Z,99067.25
2022-10-20T02:51:51.849Z,99069.09
2022-10-20T02:54:18.519Z,99072.94
2022-10-20T02:56:45.206Z,99071.91
2022-10-20T02:59:14.922Z,99062.38
2022-10-20T03:01:41.788Z,99061.31
2022-10-20T03:04:08.846Z,99068.03
2022-10-20T03:06:35.564Z,99063.97
2022-10-20T03:09:02.671Z,99071.72
2022-10-20T03:11:29.653Z,99063.16
2022-10-20T03:13:56.299Z,99064.78
2022-10-20T03:16:22.975Z,99059.88
2022-10-20T03:18:49.689Z,99055.03
2022-10-20T03:21:16.297Z,99057.06
2022-10-20T03:23:42.897Z,99051.34
2022-10-20T03:26:11.204Z,99043.97
2022-10-20T03:28:38.950Z,99052.56
2022-10-20T03:31:06.072Z,99046.44
2022-10-20T03:33:32.918Z,99044.81
2022-10-20T03:35:59.521Z,99044.63
2022-10-20T03:38:26.247Z,99040.31
2022-10-20T03:40:52.955Z,99047.28
2022-10-20T03:43:19.610Z,99042.16
2022-10-20T03:45:46.228Z,99045.81
2022-10-20T03:48:12.861Z,99037.47
2022-10-20T03:50:40.196Z,99044.78
2022-10-20T03:53:07.436Z,99034.44
2022-10-20T03:55:34.050Z,99032.78
2022-10-20T03:58:00.679Z,99030.75
2022-10-20T04:00:27.352Z,99030.53
2022-10-20T04:02:54.035Z,99024.00
2022-10-20T04:05:20.926Z,99022.22
2022-10-20T04:07:47.699Z,99024.66
2022-10-20T04:10:16.530Z,99023.00
2022-10-20T04:12:43.650Z,99023.22
2022-10-20T04:15:10.890Z,99015.88
2022-10-20T04:20:07.292Z,99009.97
2022-10-20T04:22:34.310Z,99016.91
2022-10-20T04:25:02.048Z,99009.16
2022-10-20T04:27:29.338Z,99011.78
2022-10-20T04:29:56.012Z,98998.19
2022-10-20T04:32:22.637Z,99003.69
2022-10-20T04:34:49.274Z,99002.84
2022-10-20T04:37:16.042Z,98996.56
2022-10-20T04:39:42.779Z,99001.22
2022-10-20T04:42:09.422Z,98994.09
2022-10-20T04:44:36.048Z,99002.03
2022-10-20T04:47:02.725Z,98991.03
2022-10-20T04:49:29.391Z,98986.75
2022-10-20T04:52:00.646Z,98993.09
2022-10-20T04:54:27.841Z,98983.75
2022-10-20T04:56:54.532Z,98992.69
2022-10-20T04:59:21.462Z,98982.53
2022-10-20T05:01:48.230Z,98992.88
2022-10-20T05:04:21.220Z,98980.47
2022-10-20T05:06:49.088Z,98982.53
2022-10-20T05:09:16.529Z,98976.41
2022-10-20T05:11:43.305Z,98977.00
2022-10-20T05:14:10.029Z,98975.97
2022-10-20T05:16:36.929Z,98982.47
2022-10-20T05:19:03.560Z,98978.44
2022-10-20T05:21:31.513Z,98984.09
2022-10-20T05:24:00.323Z,98981.84
2022-10-20T05:26:29.476Z,98988.38
2022-10-20T05:28:57.142Z,98981.47
2022-10-20T05:31:24.007Z,98983.09
2022-10-20T05:33:53.694Z,98984.50
2022-10-20T05:36:22.924Z,98985.50
2022-10-20T05:38:52.154Z,98987.13
2022-10-20T05:41:21.592Z,98986.50
2022-10-20T05:43:53.940Z,98982.44
2022-10-20T05:46:21.091Z,98985.47
2022-10-20T05:48:47.862Z,98990.34
2022-10-20T05:51:17.105Z,98983.06
2022-10-20T05:53:44.704Z,98993.84
2022-10-20T05:56:13.893Z,98985.28
2022-10-20T05:58:43.298Z,98990.38
2022-10-20T06:01:40.273Z,98991.00
2022-10-20T06:04:08.715Z,98992.22
2022-10-20T06:06:36.197Z,98998.75
2022-10-20T06:09:06.391Z,99004.44
2022-10-20T06:11:38.443Z,98998.16
2022-10-20T06:14:06.311Z,99003.44
2022-10-20T06:16:33.420Z,98997.53
2022-10-20T06:19:00.163Z,99003.84
2022-10-20T06:21:30.459Z,99004.28
2022-10-20T06:24:00.781Z,99011.63
2022-10-20T06:26:30.019Z,99012.00
2022-10-20T06:29:03.607Z,99006.13
2022-10-20T06:31:33.699Z,99002.88
2022-10-20T06:34:01.394Z,99004.09
2022-10-20T06:36:28.448Z,98999.22
2022-10-20T06:38:57.144Z,99001.28
2022-10-20T06:41:25.429Z,98998.28
2022-10-20T06:44:00.936Z,99005.63
2022-10-20T06:46:31.339Z,99010.91
2022-10-20T06:49:01.395Z,99008.66
2022-10-20T06:51:28.131Z,99003.56
2022-10-20T06:53:54.956Z,99000.94
2022-10-20T06:56:24.837Z,99003.38
2022-10-20T06:58:53.792Z,99005.63
2022-10-20T07:01:23.754Z,99003.56
2022-10-20T07:03:53.268Z,99001.94
2022-10-20T07:06:23.957Z,98999.72
2022-10-20T07:08:53.808Z,99001.16
2022-10-20T07:11:23.649Z,99010.50
2022-10-20T07:13:50.423Z,99005.84
2022-10-20T07:16:19.885Z,99004.81
2022-10-20T07:18:48.560Z,99005.84
2022-10-20T07:21:17.602Z,99002.34
2022-10-20T07:23:45.276Z,99003.56
2022-10-20T07:26:13.725Z,99005.81
2022-10-20T07:28:42.785Z,98996.47
2022-10-20T07:31:14.053Z,98998.88
2022-10-20T07:33:41.301Z,98989.94
2022-10-20T07:36:19.033Z,98985.66
2022-10-20T07:38:47.072Z,98995.44
2022-10-20T07:41:15.354Z,98986.66
2022-10-20T07:43:42.635Z,98984.00
2022-10-20T07:46:11.126Z,98978.53
2022-10-20T07:48:38.528Z,98978.91
2022-10-20T07:51:21.513Z,98973.22
2022-10-20T07:53:49.323Z,98980.50
2022-10-20T07:56:16.534Z,98975.81
2022-10-20T07:58:44.178Z,98974.78
2022-10-20T08:01:11.023Z,98967.84
2022-10-20T08:03:39.041Z,98971.94
2022-10-20T08:06:06.429Z,98969.19
2022-10-20T08:08:34.027Z,98971.63
2022-10-20T08:11:01.377Z,98971.38
2022-10-20T08:13:28.558Z,98979.88
2022-10-20T08:15:59.979Z,98965.75
2022-10-20T08:18:43.364Z,98967.88
2022-10-20T08:21:14.740Z,98958.63
2022-10-20T08:23:43.362Z,98957.78
2022-10-20T08:26:11.541Z,98962.91
2022-10-20T08:28:38.635Z,98961.22
2022-10-20T08:31:07.216Z,98963.31
2022-10-20T08:33:34.965Z,98952.88
2022-10-20T08:36:04.207Z,98947.56
2022-10-20T08:38:31.115Z,98948.94
2022-10-20T08:40:59.500Z,98956.03
2022-10-20T08:43:28.233Z,98952.09
2022-10-20T08:45:55.016Z,98955.47
2022-10-20T08:48:26.268Z,98951.97
2022-10-20T08:50:54.044Z,98947.03
2022-10-20T08:53:23.988Z,98941.16
2022-10-20T08:55:52.083Z,98931.69
2022-10-20T08:58:22.646Z,98929.03
2022-10-20T09:00:56.957Z,98931.31
2022-10-20T09:03:30.871Z,98920.31
2022-10-20T09:06:15.269Z,98919.22
2022-10-20T09:08:43.754Z,98919.06
2022-10-20T09:11:17.295Z,98921.06
2022-10-20T09:13:44.472Z,98916.03
2022-10-20T09:16:22.065Z,98912.34
2022-10-20T09:19:01.427Z,98902.94
2022-10-20T09:21:31.794Z,98901.63
2022-10-20T09:24:03.718Z,98901.09
2022-10-20T09:26:54.173Z,98903.34
2022-10-20T09:29:21.025Z,98898.81
2022-10-20T09:31:49.809Z,98886.88
2022-10-20T09:34:25.303Z,98887.72
2022-10-20T09:36:57.417Z,98880.31
2022-10-20T09:39:27.844Z,98884.78
2022-10-20T09:42:13.618Z,98881.75
2022-10-20T09:45:03.801Z,98886.19
2022-10-20T09:47:30.974Z,98882.81
2022-10-20T09:50:01.445Z,98874.75
2022-10-20T09:52:34.814Z,98874.84
2022-10-20T09:55:07.655Z,98871.47
2022-10-20T09:57:34.821Z,98875.44
2022-10-20T10:00:18.855Z,98870.56
2022-10-20T10:02:52.219Z,98869.91
2022-10-20T10:05:21.019Z,98868.19
2022-10-20T10:07:59.082Z,98868.09
2022-10-20T10:10:30.588Z,98864.19
2022-10-20T10:13:01.023Z,98865.38
2022-10-20T10:15:33.549Z,98846.50
2022-10-20T10:18:00.803Z,98853.31
2022-10-20T10:20:34.483Z,98842.31
2022-10-20T10:23:19.129Z,98824.16
2022-10-20T10:25:46.266Z,98841.75
2022-10-20T10:28:22.661Z,98819.56
2022-10-20T10:30:50.191Z,98824.34
2022-10-20T10:33:26.058Z,98823.44
2022-10-20T10:35:52.988Z,98828.78
2022-10-20T10:38:20.278Z,98814.59
2022-10-20T10:41:20.008Z,98813.19
2022-10-20T10:43:52.601Z,98814.41
2022-10-20T10:46:26.236Z,98819.31
2022-10-20T10:49:23.486Z,98818.78
2022-10-20T10:51:59.556Z,98815.28
2022-10-20T10:54:26.130Z,98813.38
2022-10-20T10:57:12.552Z,98804.84
2022-10-20T10:59:43.097Z,98806.22
2022-10-20T11:02:40.266Z,98802.59
2022-10-20T11:05:22.232Z,98798.78
2022-10-20T11:07:51.156Z,98795.00
2022-10-20T11:10:26.143Z,98785.44
2022-10-20T11:13:26.133Z,98787.50
2022-10-20T11:16:28.889Z,98779.50
2022-10-20T11:19:18.216Z,98780.88
2022-10-20T11:22:15.924Z,98769.59
2022-10-20T11:24:57.660Z,98767.41
2022-10-20T11:27:29.556Z,98764.78
2022-10-20T11:30:05.709Z,98746.91
2022-10-20T11:32:44.048Z,98750.66
2022-10-20T11:35:41.164Z,98749.59
2022-10-20T11:38:22.983Z,98740.78
2022-10-20T11:41:19.106Z,98736.22
2022-10-20T11:43:45.747Z,98736.22
2022-10-20T11:46:15.871Z,98734.50
2022-10-20T11:48:49.196Z,98731.13
2022-10-20T11:51:37.073Z,98736.38
2022-10-20T11:54:34.159Z,98732.19
2022-10-20T11:57:29.418Z,98721.34
2022-10-20T12:00:09.815Z,98721.47
2022-10-20T12:03:06.947Z,98711.06
2022-10-20T12:05:48.915Z,98724.06
2022-10-20T12:08:31.086Z,98727.84
2022-10-20T12:11:12.987Z,98733.03
2022-10-20T12:14:03.430Z,98730.66
2022-10-20T12:17:05.011Z,98717.81
2022-10-20T12:19:35.170Z,98720.03
2022-10-20T12:22:03.505Z,98704.09
2022-10-20T12:24:32.144Z,98689.78
2022-10-20T12:27:20.705Z,98677.16
2022-10-20T12:29:51.181Z,98670.50
2022-10-20T12:32:36.456Z,98678.06
2022-10-20T12:35:23.100Z,98679.16
2022-10-20T12:37:57.286Z,98678.00
2022-10-20T12:40:30.263Z,98668.22
2022-10-20T12:42:57.479Z,98661.47
2022-10-20T12:45:37.880Z,98661.72
2022-10-20T12:48:07.982Z,98664.81
2022-10-20T12:50:45.367Z,98665.94
2022-10-20T12:53:28.781Z,98654.22
2022-10-20T12:55:58.561Z,98664.81
2022-10-20T12:58:55.632Z,98660.88
2022-10-20T13:01:22.393Z,98654.94
2022-10-20T13:03:50.930Z,98651.78
2022-10-20T13:06:37.422Z,98656.09
2022-10-20T13:09:04.257Z,98653.97
2022-10-20T13:11:52.770Z,98645.09
2022-10-20T13:14:27.610Z,98645.88
2022-10-20T13:17:09.389Z,98653.50
2022-10-20T13:19:47.108Z,98649.91
2022-10-20T13:22:35.791Z,98649.75
2022-10-20T13:25:06.175Z,98655.44
2022-10-20T13:27:32.875Z,98640.78
2022-10-20T13:29:59.632Z,98638.94
2022-10-20T13:33:01.713Z,98641.31
2022-10-20T13:35:38.334Z,98637.88
2022-10-20T13:38:18.843Z,98637.66
2022-10-20T13:43:37.902Z,98628.09
2022-10-20T13:46:22.942Z,98628.19
2022-10-20T13:49:08.273Z,98636.56
2022-10-20T13:51:47.368Z,98630.16
2022-10-20T13:54:24.703Z,98630.66
2022-10-20T13:56:52.332Z,98626.16
2022-10-20T14:01:56.229Z,98621.00
2022-10-20T14:04:26.357Z,98619.22
2022-10-20T14:07:01.597Z,98624.91
2022-10-20T14:09:28.666Z,98614.63
2022-10-20T14:12:00.221Z,98618.94
2022-10-20T14:14:29.458Z,98618.38
2022-10-20T14:17:06.499Z,98611.50
2022-10-20T14:19:34.039Z,98612.25
2022-10-20T14:22:21.357Z,98605.28
2022-10-20T14:24:57.372Z,98603.91
2022-10-20T14:27:28.816Z,98604.03
2022-10-20T14:29:56.617Z,98614.13
2022-10-20T14:32:27.404Z,98604.97
2022-10-20T14:35:13.905Z,98604.44
2022-10-20T14:37:44.787Z,98601.56
2022-10-20T14:40:24.374Z,98598.31
2022-10-20T14:42:51.721Z,98598.53
2022-10-20T14:45:25.093Z,98588.69
2022-10-20T14:47:53.491Z,98592.09
2022-10-20T14:50:40.843Z,98588.88
2022-10-20T14:53:22.688Z,98586.97
2022-10-20T14:55:49.451Z,98592.53
2022-10-20T14:58:34.555Z,98593.25
2022-10-20T15:01:24.435Z,98595.50
2022-10-20T15:06:39.406Z,98610.50
2022-10-20T15:09:06.342Z,98608.19
2022-10-20T15:11:33.152Z,98606.13
2022-10-20T15:14:00.451Z,98607.44
2022-10-20T15:16:42.493Z,98602.00
2022-10-20T15:19:27.350Z,98599.53
2022-10-20T15:22:00.577Z,98589.84
2022-10-20T15:24:28.605Z,98594.34
2022-10-20T15:26:56.729Z,98587.63
2022-10-20T15:29:24.171Z,98584.66
2022-10-20T15:31:50.810Z,98580.88
2022-10-20T15:34:17.555Z,98564.38
2022-10-20T15:36:48.899Z,98557.13
2022-10-20T15:39:17.715Z,98561.28
2022-10-20T15:41:44.355Z,98561.84
2022-10-20T15:44:15.809Z,98571.63
2022-10-20T15:46:44.755Z,98574.97
2022-10-20T15:49:12.273Z,98584.19
2022-10-20T15:51:41.205Z,98575.84
2022-10-20T15:54:13.631Z,98570.97
2022-10-20T15:56:40.526Z,98563.47
2022-10-20T15:59:07.218Z,98565.19
2022-10-20T16:01:34.005Z,98573.16
2022-10-20T16:04:04.890Z,98570.84
2022-10-20T16:06:31.530Z,98565.44
2022-10-20T16:08:58.242Z,98571.97
2022-10-20T16:11:24.976Z,98557.84
2022-10-20T16:13:51.596Z,98560.09
2022-10-20T16:16:21.199Z,98565.34
2022-10-20T16:18:48.001Z,98550.56
2022-10-20T16:21:14.652Z,98561.22
2022-10-20T16:23:42.477Z,98562.50
2022-10-20T16:26:13.245Z,98566.72
2022-10-20T16:28:40.424Z,98565.25
2022-10-20T16:31:10.049Z,98560.31
2022-10-20T16:33:37.007Z,98566.94
2022-10-20T16:38:40.191Z,98574.72
2022-10-20T16:41:10.585Z,98574.19
2022-10-20T16:43:40.633Z,98575.50
2022-10-20T16:46:09.318Z,98580.19
2022-10-20T16:48:37.785Z,98573.94
2022-10-20T16:51:07.051Z,98581.81
2022-10-20T16:53:34.146Z,98575.69
2022-10-20T16:56:00.884Z,98582.78
2022-10-20T16:58:28.038Z,98586.97
2022-10-20T17:01:04.067Z,98584.59
2022-10-20T17:03:30.904Z,98582.47
2022-10-20T17:05:59.834Z,98578.44
2022-10-20T17:08:28.094Z,98579.03
2022-10-20T17:10:57.007Z,98582.16
2022-10-20T17:13:23.782Z,98581.56
2022-10-20T17:15:50.906Z,98570.59
2022-10-20T17:18:18.432Z,98579.03
2022-10-20T17:20:45.177Z,98575.78
2022-10-20T17:23:12.010Z,98577.78
2022-10-20T17:25:39.563Z,98580.19
2022-10-20T17:28:06.288Z,98583.75
2022-10-20T17:30:32.967Z,98584.00
2022-10-20T17:32:59.794Z,98583.44
2022-10-20T17:35:28.713Z,98586.22
2022-10-20T17:37:55.332Z,98588.72
2022-10-20T17:40:22.481Z,98585.25
2022-10-20T17:42:49.238Z,98582.00
2022-10-20T17:45:16.030Z,98576.56
2022-10-20T17:47:51.027Z,98578.06
2022-10-20T17:50:17.683Z,98571.44
2022-10-20T17:52:44.364Z,98564.19
2022-10-20T17:55:11.036Z,98572.13
2022-10-20T17:57:37.757Z,98569.81
2022-10-20T18:00:10.927Z,98564.84
2022-10-20T18:02:46.971Z,98577.44
2022-10-20T18:05:17.037Z,98578.09
2022-10-20T18:07:44.177Z,98571.88
2022-10-20T18:10:11.974Z,98582.09
2022-10-20T18:12:39.373Z,98576.91
2022-10-20T18:15:06.854Z,98579.56
2022-10-20T18:17:35.881Z,98570.88
2022-10-20T18:20:03.357Z,98562.84
2022-10-20T18:22:30.076Z,98572.06
2022-10-20T18:24:56.770Z,98567.94
2022-10-20T18:27:24.433Z,98563.06
2022-10-20T18:29:51.091Z,98554.69
2022-10-20T18:32:17.872Z,98547.53
2022-10-20T18:34:46.266Z,98545.44
2022-10-20T18:37:17.729Z,98534.69
2022-10-20T18:39:45.754Z,98525.34
2022-10-20T18:42:15.334Z,98522.78
2022-10-20T18:44:42.881Z,98522.41
2022-10-20T18:47:11.844Z,98530.66
2022-10-20T18:49:38.476Z,98543.66
2022-10-20T18:52:07.560Z,98542.19
2022-10-20T18:54:34.375Z,98537.34
2022-10-20T18:57:01.104Z,98547.28
2022-10-20T18:59:28.110Z,98543.91
2022-10-20T19:02:00.356Z,98537.81
2022-10-20T19:04:30.551Z,98535.44
2022-10-20T19:06:57.224Z,98524.41
2022-10-20T19:09:23.874Z,98517.03
2022-10-20T19:14:22.760Z,98514.03
2022-10-20T19:16:50.247Z,98514.25
2022-10-20T19:19:24.845Z,98522.63
2022-10-20T19:21:51.502Z,98516.47
2022-10-20T19:24:21.394Z,98508.75
2022-10-20T19:27:02.320Z,98509.75
2022-10-20T19:29:35.250Z,98514.69
2022-10-20T19:32:04.652Z,98507.84
2022-10-20T19:34:35.633Z,98496.13
2022-10-20T19:37:03.683Z,98491.22
2022-10-20T19:39:33.490Z,98483.50
2022-10-20T19:42:01.678Z,98489.97
2022-10-20T19:44:31.919Z,98490.31
2022-10-20T19:46:59.256Z,98488.63
2022-10-20T19:49:26.852Z,98493.34
2022-10-20T19:51:53.869Z,98498.31
2022-10-20T19:54:20.809Z,98499.72
2022-10-20T19:56:47.593Z,98502.50
2022-10-20T19:59:14.557Z,98505.78
2022-10-20T20:01:41.213Z,98505.59
2022-10-20T20:04:09.179Z,98504.84
2022-10-20T20:06:35.847Z,98516.09
2022-10-20T20:09:07.891Z,98501.63
2022-10-20T20:11:38.517Z,98491.69
2022-10-20T20:14:10.370Z,98481.97
2022-10-20T20:16:37.698Z,98478.09
2022-10-20T20:19:04.816Z,98493.97
2022-10-20T20:21:31.773Z,98490.28
2022-10-20T20:24:01.772Z,98493.75
2022-10-20T20:26:30.865Z,98502.13
2022-10-20T20:28:58.080Z,98490.13
2022-10-20T20:31:29.024Z,98486.09
2022-10-20T20:33:57.653Z,98479.63
2022-10-20T20:36:27.121Z,98485.72
2022-10-20T20:38:57.875Z,98492.47
2022-10-20T20:41:27.326Z,98485.53
2022-10-20T20:43:54.535Z,98498.78
2022-10-20T20:46:22.956Z,98499.22
2022-10-20T20:48:50.565Z,98496.78
2022-10-20T20:51:17.576Z,98501.47
2022-10-20T20:53:44.302Z,98505.13
2022-10-20T20:56:13.904Z,98502.69
2022-10-20T20:58:45.292Z,98496.81
2022-10-20T21:01:19.008Z,98498.06
2022-10-20T21:03:47.755Z,98499.72
2022-10-20T21:06:17.209Z,98502.81
2022-10-20T21:08:47.641Z,98486.34
2022-10-20T21:11:16.942Z,98487.56
2022-10-20T21:13:47.541Z,98480.06
2022-10-20T21:16:15.192Z,98481.94
2022-10-20T21:18:46.028Z,98480.31
2022-10-20T21:21:15.577Z,98470.56
2022-10-20T21:23:42.861Z,98465.50
2022-10-20T21:26:11.780Z,98467.13
2022-10-20T21:28:40.703Z,98470.97
2022-10-20T21:31:09.462Z,98472.38
2022-10-20T21:33:37.027Z,98473.38
2022-10-20T21:36:12.514Z,98470.34
2022-10-20T21:38:40.187Z,98474.22
2022-10-20T21:41:12.829Z,98475.63
2022-10-20T21:43:43.388Z,98484.97
2022-10-20T21:46:25.536Z,98488.84
2022-10-20T21:49:00.914Z,98497.19
2022-10-20T21:51:37.642Z,98482.34
2022-10-20T21:54:07.822Z,98473.00
2022-10-20T21:56:37.234Z,98467.94
2022-10-20T21:59:06.022Z,98464.66
2022-10-20T22:01:33.095Z,98444.69
2022-10-20T22:04:00.003Z,98440.81
2022-10-20T22:06:31.200Z,98433.47
2022-10-20T22:08:58.910Z,98444.84
2022-10-20T22:11:29.644Z,98449.13
2022-10-20T22:13:57.294Z,98449.94
2022-10-20T22:16:28.154Z,98442.78
2022-10-20T22:19:05.880Z,98433.63
2022-10-20T22:21:37.206Z,98431.41
2022-10-20T22:24:04.685Z,98425.84
2022-10-20T22:26:32.262Z,98425.28
2022-10-20T22:29:02.336Z,98428.94
2022-10-20T22:31:30.200Z,98424.44
2022-10-20T22:33:59.344Z,98422.41
2022-10-20T22:36:27.340Z,98425.22
2022-10-20T22:38:54.155Z,98418.75
2022-10-20T22:41:21.431Z,98418.53
2022-10-20T22:43:48.095Z,98417.13
2022-10-20T22:46:16.024Z,98420.78
2022-10-20T22:48:43.174Z,98431.34
2022-10-20T22:51:10.910Z,98430.75
2022-10-20T22:53:38.655Z,98438.34
2022-10-20T22:56:11.969Z,98431.19
2022-10-20T22:58:39.657Z,98425.53
2022-10-20T23:01:09.228Z,98433.09
2022-10-20T23:03:35.989Z,98438.81
2022-10-20T23:06:08.632Z,98425.84
2022-10-20T23:08:40.454Z,98427.91
2022-10-20T23:11:07.283Z,98424.69
2022-10-20T23:13:34.013Z,98423.06
2022-10-20T23:16:01.298Z,98427.56
2022-10-20T23:18:28.595Z,98425.94
2022-10-20T23:20:57.402Z,98421.09
2022-10-20T23:23:25.023Z,98429.41
2022-10-20T23:25:52.045Z,98434.34
2022-10-20T23:28:19.246Z,98429.84
2022-10-20T23:30:46.142Z,98430.47
2022-10-20T23:33:12.874Z,98432.88
2022-10-20T23:35:39.693Z,98423.31
2022-10-20T23:38:09.214Z,98433.28
2022-10-20T23:40:36.396Z,98427.22
2022-10-20T23:43:03.127Z,98428.22
2022-10-20T23:45:31.797Z,98432.50
2022-10-20T23:48:00.877Z,98435.94
2022-10-20T23:50:27.522Z,98443.06
2022-10-20T23:52:54.270Z,98446.31
2022-10-20T23:55:20.909Z,98456.28
2022-10-20T23:57:49.716Z,98452.44
